sensor_id;sensor_type;location;lat;lon;timestamp;pressure;altitude;pressure_sealevel;temperature;humidity
35489;BME280;21602;55.670;37.578;2023-08-17T00:02:12;99954.06;;;22.47;66.14
35489;BME280;21602;55.670;37.578;2023-08-17T00:04:39;99946.78;;;22.43;65.93
35489;BME280;21602;55.670;37.578;2023-08-17T00:07:06;99959.59;;;22.42;65.99
35489;BME280;21602;55.670;37.578;2023-08-17T00:09:32;99952.00;;;22.39;66.55
35489;BME280;21602;55.670;37.578;2023-08-17T00:11:59;99947.19;;;22.36;66.43
35489;BME280;21602;55.670;37.578;2023-08-17T00:14:25;99955.13;;;22.33;66.74
35489;BME280;21602;55.670;37.578;2023-08-17T00:16:51;99958.41;;;22.30;66.98
35489;BME280;21602;55.670;37.578;2023-08-17T00:19:17;99952.97;;;22.30;67.40
35489;BME280;21602;55.670;37.578;2023-08-17T00:21:46;99958.13;;;22.31;67.29
35489;BME280;21602;55.670;37.578;2023-08-17T00:24:12;99957.53;;;22.34;67.38
35489;BME280;21602;55.670;37.578;2023-08-17T00:26:38;99958.63;;;22.33;67.64
35489;BME280;21602;55.670;37.578;2023-08-17T00:29:04;99955.38;;;22.31;67.63
35489;BME280;21602;55.670;37.578;2023-08-17T00:31:30;99966.88;;;22.28;68.18
35489;BME280;21602;55.670;37.578;2023-08-17T00:33:56;99968.25;;;22.26;68.25
35489;BME280;21602;55.670;37.578;2023-08-17T00:36:23;99970.50;;;22.23;68.42
35489;BME280;21602;55.670;37.578;2023-08-17T00:38:50;99967.47;;;22.25;68.44
35489;BME280;21602;55.670;37.578;2023-08-17T00:41:16;99974.50;;;22.26;68.24
35489;BME280;21602;55.670;37.578;2023-08-17T00:43:41;99974.50;;;22.26;68.21
35489;BME280;21602;55.670;37.578;2023-08-17T00:46:07;99972.91;;;22.25;68.04
35489;BME280;21602;55.670;37.578;2023-08-17T00:48:34;99975.13;;;22.23;68.53
35489;BME280;21602;55.670;37.578;2023-08-17T00:51:01;99973.50;;;22.22;68.19
35489;BME280;21602;55.670;37.578;2023-08-17T00:53:29;99977.84;;;22.23;68.67
35489;BME280;21602;55.670;37.578;2023-08-17T00:55:59;99976.72;;;22.24;68.59
35489;BME280;21602;55.670;37.578;2023-08-17T00:58:27;99973.50;;;22.22;68.86
35489;BME280;21602;55.670;37.578;2023-08-17T01:00:53;99974.59;;;22.21;68.50
35489;BME280;21602;55.670;37.578;2023-08-17T01:03:20;99973.28;;;22.18;69.32
35489;BME280;21602;55.670;37.578;2023-08-17T01:05:47;99970.13;;;22.11;69.08
35489;BME280;21602;55.670;37.578;2023-08-17T01:08:13;99975.31;;;22.08;69.43
35489;BME280;21602;55.670;37.578;2023-08-17T01:11:16;99969.34;;;22.06;70.11
35489;BME280;21602;55.670;37.578;2023-08-17T01:13:57;99964.00;;;22.01;69.70
35489;BME280;21602;55.670;37.578;2023-08-17T01:16:30;99973.84;;;21.96;70.01
35489;BME280;21602;55.670;37.578;2023-08-17T01:18:58;99974.13;;;21.95;70.24
35489;BME280;21602;55.670;37.578;2023-08-17T01:21:33;99973.91;;;21.91;70.57
35489;BME280;21602;55.670;37.578;2023-08-17T01:24:03;99977.75;;;21.90;70.67
35489;BME280;21602;55.670;37.578;2023-08-17T01:26:29;99975.03;;;21.90;70.86
35489;BME280;21602;55.670;37.578;2023-08-17T01:28:55;99978.31;;;21.87;71.16
35489;BME280;21602;55.670;37.578;2023-08-17T01:31:25;99977.56;;;21.82;71.18
35489;BME280;21602;55.670;37.578;2023-08-17T01:34:03;99973.81;;;21.78;71.41
35489;BME280;21602;55.670;37.578;2023-08-17T01:36:37;99972.78;;;21.73;72.09
35489;BME280;21602;55.670;37.578;2023-08-17T01:39:07;99972.66;;;21.65;72.34
35489;BME280;21602;55.670;37.578;2023-08-17T01:41:34;99971.31;;;21.62;72.51
35489;BME280;21602;55.670;37.578;2023-08-17T01:44:02;99974.34;;;21.61;72.59
35489;BME280;21602;55.670;37.578;2023-08-17T01:46:31;99979.78;;;21.61;72.57
35489;BME280;21602;55.670;37.578;2023-08-17T01:49:00;99973.53;;;21.60;72.80
35489;BME280;21602;55.670;37.578;2023-08-17T01:51:26;99974.34;;;21.61;73.02
35489;BME280;21602;55.670;37.578;2023-08-17T01:53:52;99976.25;;;21.60;73.10
35489;BME280;21602;55.670;37.578;2023-08-17T01:56:18;99973.53;;;21.60;73.42
35489;BME280;21602;55.670;37.578;2023-08-17T01:58:44;99978.13;;;21.60;73.40
35489;BME280;21602;55.670;37.578;2023-08-17T02:01:10;99981.94;;;21.59;73.31
35489;BME280;21602;55.670;37.578;2023-08-17T02:03:36;99978.44;;;21.58;73.15
35489;BME280;21602;55.670;37.578;2023-08-17T02:06:02;99983.06;;;21.58;73.46
35489;BME280;21602;55.670;37.578;2023-08-17T02:08:29;99977.69;;;21.53;73.33
35489;BME280;21602;55.670;37.578;2023-08-17T02:10:55;99978.78;;;21.52;72.92
35489;BME280;21602;55.670;37.578;2023-08-17T02:13:22;99988.56;;;21.53;73.09
35489;BME280;21602;55.670;37.578;2023-08-17T02:15:49;99977.69;;;21.53;73.23
35489;BME280;21602;55.670;37.578;2023-08-17T02:18:15;99983.69;;;21.50;73.47
35489;BME280;21602;55.670;37.578;2023-08-17T02:20:41;99986.41;;;21.50;73.37
35489;BME280;21602;55.670;37.578;2023-08-17T02:23:07;99991.56;;;21.51;73.94
35489;BME280;21602;55.670;37.578;2023-08-17T02:25:32;99985.31;;;21.51;73.77
35489;BME280;21602;55.670;37.578;2023-08-17T02:28:02;99992.38;;;21.52;73.91
35489;BME280;21602;55.670;37.578;2023-08-17T02:30:29;99983.13;;;21.53;74.07
35489;BME280;21602;55.670;37.578;2023-08-17T02:32:58;99989.66;;;21.52;74.06
35489;BME280;21602;55.670;37.578;2023-08-17T02:35:24;99990.22;;;21.48;74.61
35489;BME280;21602;55.670;37.578;2023-08-17T02:37:50;99985.09;;;21.47;74.88
35489;BME280;21602;55.670;37.578;2023-08-17T02:40:17;99988.03;;;21.51;74.69
35489;BME280;21602;55.670;37.578;2023-08-17T02:42:43;99990.47;;;21.52;74.98
35489;BME280;21602;55.670;37.578;2023-08-17T02:45:10;99983.34;;;21.56;74.92
35489;BME280;21602;55.670;37.578;2023-08-17T02:47:35;99985.78;;;21.58;74.64
35489;BME280;21602;55.670;37.578;2023-08-17T02:50:01;99983.56;;;21.60;74.99
35489;BME280;21602;55.670;37.578;2023-08-17T02:52:27;99989.53;;;21.62;75.16
35489;BME280;21602;55.670;37.578;2023-08-17T02:54:53;99993.06;;;21.62;74.80
35489;BME280;21602;55.670;37.578;2023-08-17T02:57:20;100000.63;;;21.65;74.55
35489;BME280;21602;55.670;37.578;2023-08-17T02:59:46;99994.91;;;21.67;74.51
35489;BME280;21602;55.670;37.578;2023-08-17T03:02:11;99995.94;;;21.71;74.50
35489;BME280;21602;55.670;37.578;2023-08-17T03:04:37;100002.91;;;21.77;73.94
35489;BME280;21602;55.670;37.578;2023-08-17T03:07:03;99997.19;;;21.79;73.52
35489;BME280;21602;55.670;37.578;2023-08-17T03:09:29;99992.59;;;21.79;73.24
35489;BME280;21602;55.670;37.578;2023-08-17T03:11:55;99993.88;;;21.82;73.21
35489;BME280;21602;55.670;37.578;2023-08-17T03:14:21;99994.13;;;21.85;73.23
35489;BME280;21602;55.670;37.578;2023-08-17T03:16:47;99990.78;;;21.88;73.56
35489;BME280;21602;55.670;37.578;2023-08-17T03:19:15;99991.63;;;21.89;73.53
35489;BME280;21602;55.670;37.578;2023-08-17T03:21:42;99990.22;;;21.91;73.57
35489;BME280;21602;55.670;37.578;2023-08-17T03:24:09;99993.16;;;21.95;73.48
35489;BME280;21602;55.670;37.578;2023-08-17T03:26:35;99990.69;;;21.98;73.74
35489;BME280;21602;55.670;37.578;2023-08-17T03:29:01;100001.47;;;22.04;73.80
35489;BME280;21602;55.670;37.578;2023-08-17T03:31:27;99997.06;;;22.08;73.46
35489;BME280;21602;55.670;37.578;2023-08-17T03:33:54;99991.34;;;22.09;73.46
35489;BME280;21602;55.670;37.578;2023-08-17T03:36:21;99992.41;;;22.13;73.62
35489;BME280;21602;55.670;37.578;2023-08-17T03:38:47;99993.72;;;22.16;73.40
35489;BME280;21602;55.670;37.578;2023-08-17T03:41:12;99995.84;;;22.19;73.53
35489;BME280;21602;55.670;37.578;2023-08-17T03:43:39;99988.50;;;22.19;73.36
35489;BME280;21602;55.670;37.578;2023-08-17T03:46:05;99995.84;;;22.19;73.04
35489;BME280;21602;55.670;37.578;2023-08-17T03:48:31;99994.84;;;22.10;73.35
35489;BME280;21602;55.670;37.578;2023-08-17T03:50:57;99993.81;;;22.06;73.43
35489;BME280;21602;55.670;37.578;2023-08-17T03:53:23;99990.00;;;22.07;73.53
35489;BME280;21602;55.670;37.578;2023-08-17T03:55:50;99985.59;;;22.11;73.71
35489;BME280;21602;55.670;37.578;2023-08-17T03:58:17;99988.19;;;22.21;73.21
35489;BME280;21602;55.670;37.578;2023-08-17T04:00:49;99994.88;;;22.29;72.95
35489;BME280;21602;55.670;37.578;2023-08-17T04:03:17;99986.22;;;22.27;72.47
35489;BME280;21602;55.670;37.578;2023-08-17T04:05:43;99987.22;;;22.31;72.14
35489;BME280;21602;55.670;37.578;2023-08-17T04:08:09;99988.78;;;22.37;71.99
35489;BME280;21602;55.670;37.578;2023-08-17T04:10:35;99992.31;;;22.37;71.82
35489;BME280;21602;55.670;37.578;2023-08-17T04:13:02;99992.88;;;22.34;72.04
35489;BME280;21602;55.670;37.578;2023-08-17T04:15:29;99996.13;;;22.36;71.70
35489;BME280;21602;55.670;37.578;2023-08-17T04:17:54;99993.03;;;22.43;71.89
35489;BME280;21602;55.670;37.578;2023-08-17T04:20:21;99995.34;;;22.49;71.48
35489;BME280;21602;55.670;37.578;2023-08-17T04:22:48;99995.00;;;22.56;71.58
35489;BME280;21602;55.670;37.578;2023-08-17T04:25:15;99999.25;;;22.62;71.12
35489;BME280;21602;55.670;37.578;2023-08-17T04:27:41;99996.44;;;22.67;70.96
35489;BME280;21602;55.670;37.578;2023-08-17T04:30:09;99999.88;;;22.73;71.09
35489;BME280;21602;55.670;37.578;2023-08-17T04:32:45;99996.47;;;22.81;71.14
35489;BME280;21602;55.670;37.578;2023-08-17T04:35:16;100005.75;;;22.80;70.45
35489;BME280;21602;55.670;37.578;2023-08-17T04:37:42;100004.41;;;22.78;70.22
35489;BME280;21602;55.670;37.578;2023-08-17T04:40:08;99999.28;;;22.76;69.32
35489;BME280;21602;55.670;37.578;2023-08-17T04:42:36;99997.97;;;22.73;69.63
35489;BME280;21602;55.670;37.578;2023-08-17T04:45:02;100003.94;;;22.75;68.86
35489;BME280;21602;55.670;37.578;2023-08-17T04:47:30;100003.03;;;22.80;68.26
35489;BME280;21602;55.670;37.578;2023-08-17T04:49:55;100007.53;;;22.90;68.79
35489;BME280;21602;55.670;37.578;2023-08-17T04:52:21;100007.91;;;22.97;68.73
35489;BME280;21602;55.670;37.578;2023-08-17T04:54:47;100000.56;;;22.97;68.56
35489;BME280;21602;55.670;37.578;2023-08-17T04:57:13;100012.19;;;23.03;68.57
35489;BME280;21602;55.670;37.578;2023-08-17T04:59:40;100004.81;;;23.04;68.19
35489;BME280;21602;55.670;37.578;2023-08-17T05:02:07;100006.34;;;23.10;67.57
35489;BME280;21602;55.670;37.578;2023-08-17T05:04:35;100011.28;;;23.21;67.36
35489;BME280;21602;55.670;37.578;2023-08-17T05:07:14;100014.44;;;23.29;66.68
35489;BME280;21602;55.670;37.578;2023-08-17T05:09:40;100013.09;;;23.26;66.47
35489;BME280;21602;55.670;37.578;2023-08-17T05:12:07;100020.91;;;23.33;67.19
35489;BME280;21602;55.670;37.578;2023-08-17T05:14:33;100010.00;;;23.46;66.88
35489;BME280;21602;55.670;37.578;2023-08-17T05:17:08;100014.72;;;23.55;66.26
35489;BME280;21602;55.670;37.578;2023-08-17T05:19:34;100010.28;;;23.59;66.79
35489;BME280;21602;55.670;37.578;2023-08-17T05:22:04;100008.00;;;23.66;66.53
35489;BME280;21602;55.670;37.578;2023-08-17T05:24:33;100007.28;;;23.74;66.35
35489;BME280;21602;55.670;37.578;2023-08-17T05:26:59;100008.16;;;23.83;66.37
35489;BME280;21602;55.670;37.578;2023-08-17T05:29:32;100009.16;;;23.87;66.26
35489;BME280;21602;55.670;37.578;2023-08-17T05:32:02;100013.34;;;23.85;65.61
35489;BME280;21602;55.670;37.578;2023-08-17T05:34:29;100012.31;;;23.94;65.79
35489;BME280;21602;55.670;37.578;2023-08-17T05:36:56;100016.94;;;24.08;65.63
35489;BME280;21602;55.670;37.578;2023-08-17T05:39:35;100008.63;;;24.13;64.74
35489;BME280;21602;55.670;37.578;2023-08-17T05:42:25;100009.31;;;24.18;64.56
35489;BME280;21602;55.670;37.578;2023-08-17T05:44:52;100009.63;;;24.17;63.76
35489;BME280;21602;55.670;37.578;2023-08-17T05:47:34;100006.38;;;24.15;63.30
35489;BME280;21602;55.670;37.578;2023-08-17T05:52:57;100007.59;;;24.22;63.18
35489;BME280;21602;55.670;37.578;2023-08-17T05:55:28;100010.38;;;24.31;62.85
35489;BME280;21602;55.670;37.578;2023-08-17T05:57:59;100009.47;;;24.36;62.63
35489;BME280;21602;55.670;37.578;2023-08-17T06:00:27;100003.91;;;24.41;62.67
35489;BME280;21602;55.670;37.578;2023-08-17T06:02:53;100009.94;;;24.51;62.48
35489;BME280;21602;55.670;37.578;2023-08-17T06:05:24;100006.88;;;24.53;62.03
35489;BME280;21602;55.670;37.578;2023-08-17T06:07:52;100002.59;;;24.61;61.93
35489;BME280;21602;55.670;37.578;2023-08-17T06:10:18;100008.41;;;24.68;61.82
35489;BME280;21602;55.670;37.578;2023-08-17T06:12:46;100010.06;;;24.69;60.78
35489;BME280;21602;55.670;37.578;2023-08-17T06:15:13;100011.16;;;24.68;60.44
35489;BME280;21602;55.670;37.578;2023-08-17T06:17:39;100012.00;;;24.77;60.55
35489;BME280;21602;55.670;37.578;2023-08-17T06:20:11;100009.53;;;24.89;60.45
35489;BME280;21602;55.670;37.578;2023-08-17T06:22:38;100007.66;;;24.98;59.66
35489;BME280;21602;55.670;37.578;2023-08-17T06:25:04;100005.25;;;25.06;59.21
35489;BME280;21602;55.670;37.578;2023-08-17T06:27:37;100002.53;;;25.06;57.95
35489;BME280;21602;55.670;37.578;2023-08-17T06:30:04;100004.78;;;25.03;58.14
35489;BME280;21602;55.670;37.578;2023-08-17T06:32:33;99999.66;;;25.02;58.53
35489;BME280;21602;55.670;37.578;2023-08-17T06:34:59;100007.00;;;25.01;58.36
35489;BME280;21602;55.670;37.578;2023-08-17T06:37:27;99999.31;;;25.03;58.50
35489;BME280;21602;55.670;37.578;2023-08-17T06:39:53;100001.13;;;25.08;58.34
35489;BME280;21602;55.670;37.578;2023-08-17T06:42:19;99999.69;;;25.11;57.44
35489;BME280;21602;55.670;37.578;2023-08-17T06:44:47;100008.00;;;25.06;57.27
35489;BME280;21602;55.670;37.578;2023-08-17T06:47:18;100005.97;;;25.11;56.97
35489;BME280;21602;55.670;37.578;2023-08-17T06:49:46;100000.25;;;24.99;56.27
35489;BME280;21602;55.670;37.578;2023-08-17T06:52:12;100002.47;;;24.88;56.01
35489;BME280;21602;55.670;37.578;2023-08-17T06:54:40;100005.84;;;24.94;55.33
35489;BME280;21602;55.670;37.578;2023-08-17T06:57:16;99996.88;;;24.93;54.25
35489;BME280;21602;55.670;37.578;2023-08-17T06:59:43;100000.88;;;24.96;54.80
35489;BME280;21602;55.670;37.578;2023-08-17T07:02:12;100004.28;;;25.01;54.52
35489;BME280;21602;55.670;37.578;2023-08-17T07:04:39;99997.38;;;25.04;54.42
35489;BME280;21602;55.670;37.578;2023-08-17T07:07:05;100001.63;;;25.10;54.57
35489;BME280;21602;55.670;37.578;2023-08-17T07:09:33;99998.75;;;25.15;54.31
35489;BME280;21602;55.670;37.578;2023-08-17T07:12:02;100001.66;;;25.19;54.10
35489;BME280;21602;55.670;37.578;2023-08-17T07:14:28;100005.88;;;25.25;53.54
35489;BME280;21602;55.670;37.578;2023-08-17T07:16:57;99998.50;;;25.34;54.04
35489;BME280;21602;55.670;37.578;2023-08-17T07:19:22;99998.22;;;25.44;53.56
35489;BME280;21602;55.670;37.578;2023-08-17T07:21:48;99999.53;;;25.47;53.28
35489;BME280;21602;55.670;37.578;2023-08-17T07:24:15;100001.44;;;25.46;53.73
35489;BME280;21602;55.670;37.578;2023-08-17T07:26:45;99997.59;;;25.47;53.31
35489;BME280;21602;55.670;37.578;2023-08-17T07:29:12;100009.50;;;25.51;52.95
35489;BME280;21602;55.670;37.578;2023-08-17T07:31:39;100008.88;;;25.54;52.62
35489;BME280;21602;55.670;37.578;2023-08-17T07:34:10;100005.81;;;25.56;52.14
35489;BME280;21602;55.670;37.578;2023-08-17T07:36:36;100003.75;;;25.62;52.09
35489;BME280;21602;55.670;37.578;2023-08-17T07:39:05;100008.59;;;25.65;51.56
35489;BME280;21602;55.670;37.578;2023-08-17T07:41:31;100006.81;;;25.69;51.61
35489;BME280;21602;55.670;37.578;2023-08-17T07:43:59;100006.63;;;25.57;51.89
35489;BME280;21602;55.670;37.578;2023-08-17T07:46:25;100007.59;;;25.61;51.75
35489;BME280;21602;55.670;37.578;2023-08-17T07:48:51;99999.44;;;25.69;51.34
35489;BME280;21602;55.670;37.578;2023-08-17T07:51:16;100003.94;;;25.74;51.30
35489;BME280;21602;55.670;37.578;2023-08-17T07:53:43;99999.78;;;25.76;50.34
35489;BME280;21602;55.670;37.578;2023-08-17T07:56:09;99992.50;;;25.72;50.75
35489;BME280;21602;55.670;37.578;2023-08-17T07:58:35;99992.38;;;25.77;50.61
35489;BME280;21602;55.670;37.578;2023-08-17T08:01:00;99997.06;;;25.85;50.91
35489;BME280;21602;55.670;37.578;2023-08-17T08:03:27;99994.34;;;25.94;50.87
35489;BME280;21602;55.670;37.578;2023-08-17T08:05:52;99991.28;;;26.04;50.99
35489;BME280;21602;55.670;37.578;2023-08-17T08:08:20;100003.19;;;25.99;50.49
35489;BME280;21602;55.670;37.578;2023-08-17T08:10:47;99991.13;;;26.00;50.49
35489;BME280;21602;55.670;37.578;2023-08-17T08:13:13;99990.34;;;26.09;50.33
35489;BME280;21602;55.670;37.578;2023-08-17T08:15:42;99991.94;;;26.10;49.88
35489;BME280;21602;55.670;37.578;2023-08-17T08:18:08;99991.94;;;26.18;50.08
35489;BME280;21602;55.670;37.578;2023-08-17T08:20:34;99989.53;;;26.25;49.88
35489;BME280;21602;55.670;37.578;2023-08-17T08:23:00;99986.63;;;26.22;49.68
35489;BME280;21602;55.670;37.578;2023-08-17T08:25:25;99987.28;;;26.19;48.98
35489;BME280;21602;55.670;37.578;2023-08-17T08:27:51;99993.72;;;26.23;49.50
35489;BME280;21602;55.670;37.578;2023-08-17T08:30:17;99987.75;;;26.29;48.65
35489;BME280;21602;55.670;37.578;2023-08-17T08:32:43;99989.53;;;26.43;48.07
35489;BME280;21602;55.670;37.578;2023-08-17T08:35:09;99985.19;;;26.50;47.88
35489;BME280;21602;55.670;37.578;2023-08-17T08:37:35;99984.34;;;26.59;47.45
35489;BME280;21602;55.670;37.578;2023-08-17T08:40:01;99980.50;;;26.60;47.04
35489;BME280;21602;55.670;37.578;2023-08-17T08:42:30;99984.06;;;26.60;46.55
35489;BME280;21602;55.670;37.578;2023-08-17T08:44:56;99982.94;;;26.52;46.54
35489;BME280;21602;55.670;37.578;2023-08-17T08:47:23;99985.66;;;26.35;46.88
35489;BME280;21602;55.670;37.578;2023-08-17T08:52:27;99973.75;;;26.48;46.41
35489;BME280;21602;55.670;37.578;2023-08-17T08:54:57;99972.59;;;26.58;46.42
35489;BME280;21602;55.670;37.578;2023-08-17T08:57:24;99977.44;;;26.70;46.37
35489;BME280;21602;55.670;37.578;2023-08-17T08:59:53;99975.31;;;26.75;46.44
35489;BME280;21602;55.670;37.578;2023-08-17T09:02:20;99972.56;;;26.84;46.64
35489;BME280;21602;55.670;37.578;2023-08-17T09:04:46;99973.19;;;26.81;46.88
35489;BME280;21602;55.670;37.578;2023-08-17T09:07:12;99961.47;;;26.63;47.33
35489;BME280;21602;55.670;37.578;2023-08-17T09:09:40;99968.44;;;26.61;47.37
35489;BME280;21602;55.670;37.578;2023-08-17T09:12:08;99967.13;;;26.67;47.58
35489;BME280;21602;55.670;37.578;2023-08-17T09:14:37;99965.16;;;26.76;46.92
35489;BME280;21602;55.670;37.578;2023-08-17T09:17:04;99969.06;;;26.58;46.38
35489;BME280;21602;55.670;37.578;2023-08-17T09:19:32;99965.88;;;26.47;46.63
35489;BME280;21602;55.670;37.578;2023-08-17T09:22:00;99970.03;;;26.44;46.89
35489;BME280;21602;55.670;37.578;2023-08-17T09:24:36;99958.59;;;26.34;46.77
35489;BME280;21602;55.670;37.578;2023-08-17T09:27:03;99958.59;;;26.42;47.01
35489;BME280;21602;55.670;37.578;2023-08-17T09:29:31;99962.94;;;26.61;47.13
35489;BME280;21602;55.670;37.578;2023-08-17T09:32:07;99960.00;;;26.74;46.94
35489;BME280;21602;55.670;37.578;2023-08-17T09:34:36;99965.47;;;26.83;47.00
35489;BME280;21602;55.670;37.578;2023-08-17T09:37:05;99953.47;;;26.96;47.61
35489;BME280;21602;55.670;37.578;2023-08-17T09:39:31;99959.56;;;27.11;47.48
35489;BME280;21602;55.670;37.578;2023-08-17T09:42:01;99955.19;;;27.18;46.81
35489;BME280;21602;55.670;37.578;2023-08-17T09:44:33;99952.50;;;27.10;46.50
35489;BME280;21602;55.670;37.578;2023-08-17T09:47:00;99954.94;;;27.11;46.05
35489;BME280;21602;55.670;37.578;2023-08-17T09:49:30;99959.09;;;27.17;45.68
35489;BME280;21602;55.670;37.578;2023-08-17T09:51:59;99961.78;;;27.26;45.44
35489;BME280;21602;55.670;37.578;2023-08-17T09:54:30;99955.63;;;27.29;45.00
35489;BME280;21602;55.670;37.578;2023-08-17T09:56:58;99962.75;;;27.30;45.47
35489;BME280;21602;55.670;37.578;2023-08-17T09:59:24;99957.72;;;27.32;45.06
35489;BME280;21602;55.670;37.578;2023-08-17T10:01:51;99959.13;;;27.38;44.85
35489;BME280;21602;55.670;37.578;2023-08-17T10:04:20;99951.84;;;27.42;45.15
35489;BME280;21602;55.670;37.578;2023-08-17T10:06:56;99959.28;;;27.42;45.00
35489;BME280;21602;55.670;37.578;2023-08-17T10:09:28;99962.56;;;27.35;44.98
35489;BME280;21602;55.670;37.578;2023-08-17T10:11:58;99953.03;;;27.33;45.27
35489;BME280;21602;55.670;37.578;2023-08-17T10:14:32;99944.97;;;27.36;45.17
35489;BME280;21602;55.670;37.578;2023-08-17T10:17:07;99946.97;;;27.48;45.32
35489;BME280;21602;55.670;37.578;2023-08-17T10:19:57;99957.94;;;27.48;45.42
35489;BME280;21602;55.670;37.578;2023-08-17T10:22:56;99952.16;;;27.49;45.49
35489;BME280;21602;55.670;37.578;2023-08-17T10:25:27;99948.59;;;27.49;45.59
35489;BME280;21602;55.670;37.578;2023-08-17T10:27:56;99949.00;;;27.60;45.63
35489;BME280;21602;55.670;37.578;2023-08-17T10:30:22;99948.78;;;27.73;46.18
35489;BME280;21602;55.670;37.578;2023-08-17T10:32:55;99946.69;;;27.91;46.18
35489;BME280;21602;55.670;37.578;2023-08-17T10:35:22;99941.28;;;28.03;46.16
35489;BME280;21602;55.670;37.578;2023-08-17T10:37:48;99940.63;;;28.06;45.21
35489;BME280;21602;55.670;37.578;2023-08-17T10:40:25;99934.25;;;27.94;45.09
35489;BME280;21602;55.670;37.578;2023-08-17T10:42:55;99926.25;;;27.89;45.48
35489;BME280;21602;55.670;37.578;2023-08-17T10:47:47;99940.88;;;27.72;44.88
35489;BME280;21602;55.670;37.578;2023-08-17T10:50:22;99940.72;;;27.68;43.57
35489;BME280;21602;55.670;37.578;2023-08-17T10:52:49;99943.94;;;27.70;43.60
35489;BME280;21602;55.670;37.578;2023-08-17T10:55:16;99935.19;;;27.77;44.22
35489;BME280;21602;55.670;37.578;2023-08-17T10:57:44;99941.16;;;27.79;44.47
35489;BME280;21602;55.670;37.578;2023-08-17T11:00:21;99939.22;;;27.79;45.08
35489;BME280;21602;55.670;37.578;2023-08-17T11:02:58;99932.97;;;27.70;45.24
35489;BME280;21602;55.670;37.578;2023-08-17T11:05:47;99923.84;;;27.57;45.05
35489;BME280;21602;55.670;37.578;2023-08-17T11:08:28;99925.47;;;27.59;45.61
35489;BME280;21602;55.670;37.578;2023-08-17T11:11:12;99920.44;;;27.61;45.42
35489;BME280;21602;55.670;37.578;2023-08-17T11:13:45;99915.22;;;27.68;45.34
35489;BME280;21602;55.670;37.578;2023-08-17T11:16:13;99911.13;;;27.83;45.85
35489;BME280;21602;55.670;37.578;2023-08-17T11:18:40;99914.19;;;28.02;45.32
35489;BME280;21602;55.670;37.578;2023-08-17T11:21:12;99919.63;;;28.23;44.78
35489;BME280;21602;55.670;37.578;2023-08-17T11:23:43;99906.78;;;28.36;44.85
35489;BME280;21602;55.670;37.578;2023-08-17T11:26:09;99909.44;;;28.44;44.48
35489;BME280;21602;55.670;37.578;2023-08-17T11:28:38;99913.22;;;28.40;43.83
35489;BME280;21602;55.670;37.578;2023-08-17T11:31:09;99907.50;;;28.45;44.19
35489;BME280;21602;55.670;37.578;2023-08-17T11:33:39;99906.97;;;28.30;43.81
35489;BME280;21602;55.670;37.578;2023-08-17T11:36:08;99904.09;;;28.27;43.83
35489;BME280;21602;55.670;37.578;2023-08-17T11:38:41;99895.19;;;28.30;43.91
35489;BME280;21602;55.670;37.578;2023-08-17T11:41:07;99904.19;;;28.18;43.20
35489;BME280;21602;55.670;37.578;2023-08-17T11:43:34;99890.00;;;28.16;43.60
35489;BME280;21602;55.670;37.578;2023-08-17T11:46:01;99891.59;;;28.17;43.53
35489;BME280;21602;55.670;37.578;2023-08-17T11:48:28;99884.75;;;28.23;43.19
35489;BME280;21602;55.670;37.578;2023-08-17T11:50:55;99882.34;;;28.22;43.34
35489;BME280;21602;55.670;37.578;2023-08-17T11:53:21;99884.97;;;28.18;43.75
35489;BME280;21602;55.670;37.578;2023-08-17T11:55:47;99880.06;;;28.24;43.69
35489;BME280;21602;55.670;37.578;2023-08-17T11:58:14;99890.50;;;28.30;43.59
35489;BME280;21602;55.670;37.578;2023-08-17T12:00:42;99882.66;;;28.41;42.77
35489;BME280;21602;55.670;37.578;2023-08-17T12:03:13;99878.22;;;28.49;43.06
35489;BME280;21602;55.670;37.578;2023-08-17T12:05:40;99875.56;;;28.52;43.14
35489;BME280;21602;55.670;37.578;2023-08-17T12:08:07;99880.84;;;28.57;42.83
35489;BME280;21602;55.670;37.578;2023-08-17T12:10:33;99876.97;;;28.58;43.29
35489;BME280;21602;55.670;37.578;2023-08-17T12:13:01;99879.81;;;28.62;43.64
35489;BME280;21602;55.670;37.578;2023-08-17T12:15:31;99870.69;;;28.70;43.55
35489;BME280;21602;55.670;37.578;2023-08-17T12:17:59;99869.44;;;28.68;42.61
35489;BME280;21602;55.670;37.578;2023-08-17T12:20:25;99878.56;;;28.72;42.66
35489;BME280;21602;55.670;37.578;2023-08-17T12:22:51;99871.47;;;28.71;42.04
35489;BME280;21602;55.670;37.578;2023-08-17T12:25:21;99868.28;;;28.69;41.69
35489;BME280;21602;55.670;37.578;2023-08-17T12:27:49;99862.09;;;28.72;42.00
35489;BME280;21602;55.670;37.578;2023-08-17T12:30:28;99855.72;;;28.68;42.24
35489;BME280;21602;55.670;37.578;2023-08-17T12:32:55;99868.84;;;28.62;42.42
35489;BME280;21602;55.670;37.578;2023-08-17T12:35:21;99857.84;;;28.62;42.11
35489;BME280;21602;55.670;37.578;2023-08-17T12:37:49;99856.03;;;28.66;42.61
35489;BME280;21602;55.670;37.578;2023-08-17T12:40:15;99860.50;;;28.71;42.37
35489;BME280;21602;55.670;37.578;2023-08-17T12:42:41;99854.78;;;28.64;42.30
35489;BME280;21602;55.670;37.578;2023-08-17T12:45:07;99857.06;;;28.62;42.12
35489;BME280;21602;55.670;37.578;2023-08-17T12:47:33;99857.31;;;28.69;42.52
35489;BME280;21602;55.670;37.578;2023-08-17T12:50:01;99857.06;;;28.74;42.12
35489;BME280;21602;55.670;37.578;2023-08-17T12:52:29;99858.22;;;28.73;42.46
35489;BME280;21602;55.670;37.578;2023-08-17T12:54:55;99856.38;;;28.77;41.97
35489;BME280;21602;55.670;37.578;2023-08-17T12:57:21;99850.22;;;28.68;41.90
35489;BME280;21602;55.670;37.578;2023-08-17T12:59:47;99847.31;;;28.52;42.55
35489;BME280;21602;55.670;37.578;2023-08-17T13:02:13;99846.88;;;28.50;42.31